sensor_id;sensor_type;location;lat;lon;timestamp;P1;durP1;ratioP1;P2;durP2;ratioP2
82635;SDS011;72317;37.280;-121.948;2023-12-20T00:00:55;1.75;;;0.30;;
82635;SDS011;72317;37.280;-121.948;2023-12-20T00:03:21;1.48;;;0.30;;
82635;SDS011;72317;37.280;-121.948;2023-12-20T00:05:47;2.33;;;0.30;;
82635;SDS011;72317;37.280;-121.948;2023-12-20T00:08:13;2.28;;;0.32;;
82635;SDS011;72317;37.280;-121.948;2023-12-20T00:10:39;1.27;;;0.30;;
82635;SDS011;72317;37.280;-121.948;2023-12-20T00:13:05;0.52;;;0.35;;
82635;SDS011;72317;37.280;-121.948;2023-12-20T00:15:33;0.65;;;0.15;;
82635;SDS011;72317;37.280;-121.948;2023-12-20T00:17:59;1.15;;;0.25;;
82635;SDS011;72317;37.280;-121.948;2023-12-20T00:20:24;0.80;;;0.20;;
82635;SDS011;72317;37.280;-121.948;2023-12-20T00:22:50;0.10;;;0.10;;
82635;SDS011;72317;37.280;-121.948;2023-12-20T00:26:23;1.90;;;0.20;;
82635;SDS011;72317;37.280;-121.948;2023-12-20T00:28:50;1.27;;;0.30;;
82635;SDS011;72317;37.280;-121.948;2023-12-20T00:31:16;1.75;;;0.22;;
82635;SDS011;72317;37.280;-121.948;2023-12-20T00:33:42;0.52;;;0.20;;
82635;SDS011;72317;37.280;-121.948;2023-12-20T00:36:09;1.70;;;0.30;;
82635;SDS011;72317;37.280;-121.948;2023-12-20T00:38:35;3.50;;;0.40;;
82635;SDS011;72317;37.280;-121.948;2023-12-20T00:41:00;2.80;;;0.95;;
82635;SDS011;72317;37.280;-121.948;2023-12-20T00:43:26;0.40;;;0.40;;
82635;SDS011;72317;37.280;-121.948;2023-12-20T00:45:53;0.20;;;0.20;;
82635;SDS011;72317;37.280;-121.948;2023-12-20T00:48:18;1.35;;;0.30;;
82635;SDS011;72317;37.280;-121.948;2023-12-20T00:50:44;0.40;;;0.20;;
82635;SDS011;72317;37.280;-121.948;2023-12-20T00:53:10;1.75;;;0.30;;
82635;SDS011;72317;37.280;-121.948;2023-12-20T00:55:36;1.55;;;0.35;;
82635;SDS011;72317;37.280;-121.948;2023-12-20T00:58:01;3.20;;;0.50;;
82635;SDS011;72317;37.280;-121.948;2023-12-20T01:00:27;2.88;;;0.30;;
82635;SDS011;72317;37.280;-121.948;2023-12-20T01:02:53;0.65;;;0.20;;
82635;SDS011;72317;37.280;-121.948;2023-12-20T01:05:19;1.38;;;0.20;;
82635;SDS011;72317;37.280;-121.948;2023-12-20T01:07:44;1.33;;;0.30;;
82635;SDS011;72317;37.280;-121.948;2023-12-20T01:10:10;1.80;;;0.20;;
82635;SDS011;72317;37.280;-121.948;2023-12-20T01:12:36;1.60;;;0.30;;
82635;SDS011;72317;37.280;-121.948;2023-12-20T01:15:02;1.45;;;0.40;;
82635;SDS011;72317;37.280;-121.948;2023-12-20T01:17:28;2.30;;;0.40;;
82635;SDS011;72317;37.280;-121.948;2023-12-20T01:19:54;0.40;;;0.32;;
82635;SDS011;72317;37.280;-121.948;2023-12-20T01:22:19;2.10;;;0.30;;
82635;SDS011;72317;37.280;-121.948;2023-12-20T01:24:45;1.02;;;0.50;;
82635;SDS011;72317;37.280;-121.948;2023-12-20T01:27:11;1.42;;;0.38;;
82635;SDS011;72317;37.280;-121.948;2023-12-20T01:29:37;5.57;;;0.35;;
82635;SDS011;72317;37.280;-121.948;2023-12-20T01:32:02;0.65;;;0.40;;
82635;SDS011;72317;37.280;-121.948;2023-12-20T01:34:28;2.38;;;0.30;;
82635;SDS011;72317;37.280;-121.948;2023-12-20T01:36:54;0.60;;;0.32;;
82635;SDS011;72317;37.280;-121.948;2023-12-20T01:39:20;1.45;;;0.30;;
82635;SDS011;72317;37.280;-121.948;2023-12-20T01:41:46;2.03;;;0.30;;
82635;SDS011;72317;37.280;-121.948;2023-12-20T01:44:11;0.30;;;0.25;;
82635;SDS011;72317;37.280;-121.948;2023-12-20T01:46:37;2.80;;;0.43;;
82635;SDS011;72317;37.280;-121.948;2023-12-20T01:49:03;1.38;;;0.40;;
82635;SDS011;72317;37.280;-121.948;2023-12-20T01:51:29;1.80;;;0.17;;
82635;SDS011;72317;37.280;-121.948;2023-12-20T01:53:56;1.95;;;0.63;;
82635;SDS011;72317;37.280;-121.948;2023-12-20T01:56:22;3.15;;;0.47;;
82635;SDS011;72317;37.280;-121.948;2023-12-20T01:58:48;1.25;;;0.20;;
82635;SDS011;72317;37.280;-121.948;2023-12-20T02:01:14;1.98;;;0.20;;
82635;SDS011;72317;37.280;-121.948;2023-12-20T02:03:41;3.50;;;0.40;;
82635;SDS011;72317;37.280;-121.948;2023-12-20T02:06:07;0.55;;;0.28;;
82635;SDS011;72317;37.280;-121.948;2023-12-20T02:08:33;0.77;;;0.20;;
82635;SDS011;72317;37.280;-121.948;2023-12-20T02:10:59;0.68;;;0.30;;
82635;SDS011;72317;37.280;-121.948;2023-12-20T02:13:25;1.40;;;0.40;;
82635;SDS011;72317;37.280;-121.948;2023-12-20T02:15:52;0.55;;;0.40;;
82635;SDS011;72317;37.280;-121.948;2023-12-20T02:18:17;0.82;;;0.20;;
82635;SDS011;72317;37.280;-121.948;2023-12-20T02:20:43;1.65;;;0.50;;
82635;SDS011;72317;37.280;-121.948;2023-12-20T02:23:09;0.90;;;0.30;;
82635;SDS011;72317;37.280;-121.948;2023-12-20T02:25:35;1.73;;;0.45;;
82635;SDS011;72317;37.280;-121.948;2023-12-20T02:28:02;1.73;;;0.40;;
82635;SDS011;72317;37.280;-121.948;2023-12-20T02:30:29;1.25;;;0.32;;
82635;SDS011;72317;37.280;-121.948;2023-12-20T02:32:55;1.38;;;0.32;;
82635;SDS011;72317;37.280;-121.948;2023-12-20T02:35:21;2.25;;;0.80;;
82635;SDS011;72317;37.280;-121.948;2023-12-20T02:37:47;3.35;;;0.22;;
82635;SDS011;72317;37.280;-121.948;2023-12-20T02:40:12;1.23;;;0.30;;
82635;SDS011;72317;37.280;-121.948;2023-12-20T02:42:38;1.15;;;0.22;;
82635;SDS011;72317;37.280;-121.948;2023-12-20T02:45:04;1.77;;;0.32;;
82635;SDS011;72317;37.280;-121.948;2023-12-20T02:47:30;1.60;;;0.40;;
82635;SDS011;72317;37.280;-121.948;2023-12-20T02:49:56;1.13;;;0.40;;
82635;SDS011;72317;37.280;-121.948;2023-12-20T02:52:24;1.75;;;0.40;;
82635;SDS011;72317;37.280;-121.948;2023-12-20T02:54:50;1.20;;;0.35;;
82635;SDS011;72317;37.280;-121.948;2023-12-20T02:57:16;0.57;;;0.30;;
82635;SDS011;72317;37.280;-121.948;2023-12-20T02:59:42;2.50;;;0.52;;
82635;SDS011;72317;37.280;-121.948;2023-12-20T03:02:07;0.68;;;0.50;;
82635;SDS011;72317;37.280;-121.948;2023-12-20T03:04:33;3.20;;;0.45;;
82635;SDS011;72317;37.280;-121.948;2023-12-20T03:06:59;2.72;;;0.50;;
82635;SDS011;72317;37.280;-121.948;2023-12-20T03:09:25;3.42;;;0.75;;
82635;SDS011;72317;37.280;-121.948;2023-12-20T03:11:50;1.92;;;0.47;;
82635;SDS011;72317;37.280;-121.948;2023-12-20T03:14:16;1.73;;;0.70;;
82635;SDS011;72317;37.280;-121.948;2023-12-20T03:16:46;1.75;;;0.75;;
82635;SDS011;72317;37.280;-121.948;2023-12-20T03:19:12;1.27;;;0.60;;
82635;SDS011;72317;37.280;-121.948;2023-12-20T03:21:37;1.88;;;0.70;;
82635;SDS011;72317;37.280;-121.948;2023-12-20T03:24:03;3.38;;;0.65;;
82635;SDS011;72317;37.280;-121.948;2023-12-20T03:26:29;2.65;;;0.47;;
82635;SDS011;72317;37.280;-121.948;2023-12-20T03:28:55;0.90;;;0.38;;
82635;SDS011;72317;37.280;-121.948;2023-12-20T03:31:21;1.90;;;0.38;;
82635;SDS011;72317;37.280;-121.948;2023-12-20T03:33:47;3.78;;;0.60;;
82635;SDS011;72317;37.280;-121.948;2023-12-20T03:36:13;3.78;;;0.50;;
82635;SDS011;72317;37.280;-121.948;2023-12-20T03:38:38;1.95;;;0.40;;
82635;SDS011;72317;37.280;-121.948;2023-12-20T03:41:04;1.85;;;0.30;;
82635;SDS011;72317;37.280;-121.948;2023-12-20T03:43:30;2.05;;;0.40;;
82635;SDS011;72317;37.280;-121.948;2023-12-20T03:45:56;0.73;;;0.40;;
82635;SDS011;72317;37.280;-121.948;2023-12-20T03:48:23;1.48;;;0.40;;
82635;SDS011;72317;37.280;-121.948;2023-12-20T03:50:49;1.13;;;0.20;;
82635;SDS011;72317;37.280;-121.948;2023-12-20T03:53:15;3.13;;;0.38;;
82635;SDS011;72317;37.280;-121.948;2023-12-20T03:55:41;4.40;;;0.30;;
82635;SDS011;72317;37.280;-121.948;2023-12-20T03:58:06;0.80;;;0.28;;
82635;SDS011;72317;37.280;-121.948;2023-12-20T04:00:32;4.03;;;0.50;;
82635;SDS011;72317;37.280;-121.948;2023-12-20T04:02:58;3.78;;;0.38;;
82635;SDS011;72317;37.280;-121.948;2023-12-20T04:05:24;1.63;;;0.30;;
82635;SDS011;72317;37.280;-121.948;2023-12-20T04:07:50;1.92;;;0.47;;
82635;SDS011;72317;37.280;-121.948;2023-12-20T04:10:15;1.90;;;0.50;;
82635;SDS011;72317;37.280;-121.948;2023-12-20T04:12:41;0.90;;;0.40;;
82635;SDS011;72317;37.280;-121.948;2023-12-20T04:15:07;0.95;;;0.40;;
82635;SDS011;72317;37.280;-121.948;2023-12-20T04:17:34;2.75;;;0.30;;
82635;SDS011;72317;37.280;-121.948;2023-12-20T04:20:01;0.93;;;0.28;;
82635;SDS011;72317;37.280;-121.948;2023-12-20T04:22:27;0.60;;;0.30;;
82635;SDS011;72317;37.280;-121.948;2023-12-20T04:24:53;0.75;;;0.40;;
82635;SDS011;72317;37.280;-121.948;2023-12-20T04:27:19;3.70;;;0.30;;
82635;SDS011;72317;37.280;-121.948;2023-12-20T04:29:44;4.20;;;0.47;;
82635;SDS011;72317;37.280;-121.948;2023-12-20T04:32:10;2.00;;;0.52;;
82635;SDS011;72317;37.280;-121.948;2023-12-20T04:34:36;1.65;;;0.40;;
82635;SDS011;72317;37.280;-121.948;2023-12-20T04:37:02;1.13;;;0.32;;
82635;SDS011;72317;37.280;-121.948;2023-12-20T04:39:28;2.00;;;0.40;;
82635;SDS011;72317;37.280;-121.948;2023-12-20T04:41:53;1.20;;;0.30;;
82635;SDS011;72317;37.280;-121.948;2023-12-20T04:44:19;4.40;;;0.38;;
82635;SDS011;72317;37.280;-121.948;2023-12-20T04:46:45;1.92;;;0.30;;
82635;SDS011;72317;37.280;-121.948;2023-12-20T04:49:11;1.23;;;0.28;;
82635;SDS011;72317;37.280;-121.948;2023-12-20T04:51:36;0.88;;;0.30;;
82635;SDS011;72317;37.280;-121.948;2023-12-20T04:54:03;0.68;;;0.22;;
82635;SDS011;72317;37.280;-121.948;2023-12-20T04:56:29;1.27;;;0.38;;
82635;SDS011;72317;37.280;-121.948;2023-12-20T04:58:55;2.25;;;0.30;;
82635;SDS011;72317;37.280;-121.948;2023-12-20T05:01:20;1.65;;;0.40;;
82635;SDS011;72317;37.280;-121.948;2023-12-20T05:03:46;1.05;;;0.50;;
82635;SDS011;72317;37.280;-121.948;2023-12-20T05:06:12;1.58;;;0.40;;
82635;SDS011;72317;37.280;-121.948;2023-12-20T05:08:38;4.15;;;0.60;;
82635;SDS011;72317;37.280;-121.948;2023-12-20T05:11:04;1.38;;;0.47;;
82635;SDS011;72317;37.280;-121.948;2023-12-20T05:13:30;1.88;;;0.40;;
82635;SDS011;72317;37.280;-121.948;2023-12-20T05:15:55;2.28;;;0.52;;
82635;SDS011;72317;37.280;-121.948;2023-12-20T05:18:21;4.35;;;0.82;;
82635;SDS011;72317;37.280;-121.948;2023-12-20T05:20:48;2.05;;;0.35;;
82635;SDS011;72317;37.280;-121.948;2023-12-20T05:23:14;1.42;;;0.70;;
82635;SDS011;72317;37.280;-121.948;2023-12-20T05:25:40;0.65;;;0.50;;
82635;SDS011;72317;37.280;-121.948;2023-12-20T05:28:06;2.45;;;0.50;;
82635;SDS011;72317;37.280;-121.948;2023-12-20T05:30:31;1.10;;;0.60;;
82635;SDS011;72317;37.280;-121.948;2023-12-20T05:32:57;1.58;;;0.70;;
82635;SDS011;72317;37.280;-121.948;2023-12-20T05:35:23;2.08;;;0.60;;
82635;SDS011;72317;37.280;-121.948;2023-12-20T05:37:49;2.05;;;0.60;;
82635;SDS011;72317;37.280;-121.948;2023-12-20T05:40:15;4.05;;;0.75;;
82635;SDS011;72317;37.280;-121.948;2023-12-20T05:42:41;2.30;;;0.68;;
82635;SDS011;72317;37.280;-121.948;2023-12-20T05:45:06;1.17;;;0.40;;
82635;SDS011;72317;37.280;-121.948;2023-12-20T05:47:32;2.83;;;0.63;;
82635;SDS011;72317;37.280;-121.948;2023-12-20T05:49:58;2.58;;;0.50;;
82635;SDS011;72317;37.280;-121.948;2023-12-20T05:52:24;2.72;;;0.70;;
82635;SDS011;72317;37.280;-121.948;2023-12-20T05:54:50;1.65;;;0.50;;
82635;SDS011;72317;37.280;-121.948;2023-12-20T05:57:16;2.53;;;0.52;;
82635;SDS011;72317;37.280;-121.948;2023-12-20T05:59:41;3.33;;;0.60;;
82635;SDS011;72317;37.280;-121.948;2023-12-20T06:02:07;2.28;;;0.52;;
82635;SDS011;72317;37.280;-121.948;2023-12-20T06:04:33;1.63;;;0.40;;
82635;SDS011;72317;37.280;-121.948;2023-12-20T06:06:59;2.38;;;0.50;;
82635;SDS011;72317;37.280;-121.948;2023-12-20T06:09:25;1.25;;;0.50;;
82635;SDS011;72317;37.280;-121.948;2023-12-20T06:11:52;1.98;;;0.60;;
82635;SDS011;72317;37.280;-121.948;2023-12-20T06:14:17;4.05;;;0.55;;
82635;SDS011;72317;37.280;-121.948;2023-12-20T06:16:43;1.90;;;0.73;;
82635;SDS011;72317;37.280;-121.948;2023-12-20T06:19:10;1.27;;;0.60;;
82635;SDS011;72317;37.280;-121.948;2023-12-20T06:21:36;1.58;;;0.60;;
82635;SDS011;72317;37.280;-121.948;2023-12-20T06:24:01;6.18;;;0.47;;
82635;SDS011;72317;37.280;-121.948;2023-12-20T06:26:27;2.13;;;0.60;;
82635;SDS011;72317;37.280;-121.948;2023-12-20T06:28:53;2.88;;;0.70;;
82635;SDS011;72317;37.280;-121.948;2023-12-20T06:31:20;5.88;;;0.70;;
82635;SDS011;72317;37.280;-121.948;2023-12-20T06:33:46;2.28;;;0.60;;
82635;SDS011;72317;37.280;-121.948;2023-12-20T06:36:12;3.03;;;0.70;;
82635;SDS011;72317;37.280;-121.948;2023-12-20T06:38:41;2.97;;;0.90;;
82635;SDS011;72317;37.280;-121.948;2023-12-20T06:41:07;4.72;;;0.80;;
82635;SDS011;72317;37.280;-121.948;2023-12-20T06:43:33;3.22;;;1.02;;
82635;SDS011;72317;37.280;-121.948;2023-12-20T06:46:00;2.00;;;0.60;;
82635;SDS011;72317;37.280;-121.948;2023-12-20T06:48:26;1.77;;;0.70;;
82635;SDS011;72317;37.280;-121.948;2023-12-20T06:50:51;6.43;;;1.08;;
82635;SDS011;72317;37.280;-121.948;2023-12-20T06:53:17;3.25;;;0.88;;
82635;SDS011;72317;37.280;-121.948;2023-12-20T06:55:43;1.52;;;0.65;;
82635;SDS011;72317;37.280;-121.948;2023-12-20T06:58:09;2.25;;;0.60;;
82635;SDS011;72317;37.280;-121.948;2023-12-20T07:00:35;2.97;;;0.60;;
82635;SDS011;72317;37.280;-121.948;2023-12-20T07:03:00;2.30;;;0.70;;
82635;SDS011;72317;37.280;-121.948;2023-12-20T07:05:26;4.63;;;0.57;;
82635;SDS011;72317;37.280;-121.948;2023-12-20T07:07:52;6.05;;;1.00;;
82635;SDS011;72317;37.280;-121.948;2023-12-20T07:10:18;2.53;;;0.60;;
82635;SDS011;72317;37.280;-121.948;2023-12-20T07:12:44;2.22;;;0.45;;
82635;SDS011;72317;37.280;-121.948;2023-12-20T07:15:09;2.30;;;0.60;;
82635;SDS011;72317;37.280;-121.948;2023-12-20T07:17:35;1.58;;;0.50;;
82635;SDS011;72317;37.280;-121.948;2023-12-20T07:20:01;5.85;;;0.43;;
82635;SDS011;72317;37.280;-121.948;2023-12-20T07:22:29;4.30;;;0.47;;
82635;SDS011;72317;37.280;-121.948;2023-12-20T07:24:57;1.58;;;0.50;;
82635;SDS011;72317;37.280;-121.948;2023-12-20T07:27:23;1.92;;;0.75;;
82635;SDS011;72317;37.280;-121.948;2023-12-20T07:29:48;3.75;;;0.45;;
82635;SDS011;72317;37.280;-121.948;2023-12-20T07:32:14;3.00;;;0.40;;
82635;SDS011;72317;37.280;-121.948;2023-12-20T07:34:40;2.42;;;0.60;;
82635;SDS011;72317;37.280;-121.948;2023-12-20T07:37:06;2.17;;;0.60;;
82635;SDS011;72317;37.280;-121.948;2023-12-20T07:39:31;1.23;;;0.40;;
82635;SDS011;72317;37.280;-121.948;2023-12-20T07:41:57;4.47;;;0.60;;
82635;SDS011;72317;37.280;-121.948;2023-12-20T07:44:23;0.75;;;0.30;;
82635;SDS011;72317;37.280;-121.948;2023-12-20T07:46:49;3.58;;;0.80;;
82635;SDS011;72317;37.280;-121.948;2023-12-20T07:49:15;1.58;;;0.43;;
82635;SDS011;72317;37.280;-121.948;2023-12-20T07:51:41;2.78;;;0.50;;
82635;SDS011;72317;37.280;-121.948;2023-12-20T07:54:06;1.60;;;0.50;;
82635;SDS011;72317;37.280;-121.948;2023-12-20T07:56:33;3.20;;;0.45;;
82635;SDS011;72317;37.280;-121.948;2023-12-20T07:58:59;1.52;;;0.47;;
82635;SDS011;72317;37.280;-121.948;2023-12-20T08:01:24;0.63;;;0.35;;
82635;SDS011;72317;37.280;-121.948;2023-12-20T08:03:50;2.83;;;0.50;;
82635;SDS011;72317;37.280;-121.948;2023-12-20T08:06:16;0.73;;;0.43;;
82635;SDS011;72317;37.280;-121.948;2023-12-20T08:08:42;2.33;;;0.40;;
82635;SDS011;72317;37.280;-121.948;2023-12-20T08:11:08;3.05;;;0.52;;
82635;SDS011;72317;37.280;-121.948;2023-12-20T08:13:34;2.72;;;0.40;;
82635;SDS011;72317;37.280;-121.948;2023-12-20T08:16:00;5.88;;;0.50;;
82635;SDS011;72317;37.280;-121.948;2023-12-20T08:18:28;0.55;;;0.50;;
82635;SDS011;72317;37.280;-121.948;2023-12-20T08:20:54;3.42;;;0.45;;
82635;SDS011;72317;37.280;-121.948;2023-12-20T08:23:20;1.90;;;0.50;;
82635;SDS011;72317;37.280;-121.948;2023-12-20T08:25:46;1.90;;;0.30;;
82635;SDS011;72317;37.280;-121.948;2023-12-20T08:28:12;1.77;;;0.40;;
82635;SDS011;72317;37.280;-121.948;2023-12-20T08:30:38;1.90;;;0.40;;
82635;SDS011;72317;37.280;-121.948;2023-12-20T08:33:04;2.08;;;0.22;;
82635;SDS011;72317;37.280;-121.948;2023-12-20T08:35:29;1.98;;;0.43;;
82635;SDS011;72317;37.280;-121.948;2023-12-20T08:37:56;0.98;;;0.50;;
82635;SDS011;72317;37.280;-121.948;2023-12-20T08:40:21;2.25;;;0.47;;
82635;SDS011;72317;37.280;-121.948;2023-12-20T08:42:47;1.52;;;0.50;;
82635;SDS011;72317;37.280;-121.948;2023-12-20T08:45:13;1.80;;;0.30;;
82635;SDS011;72317;37.280;-121.948;2023-12-20T08:47:39;2.15;;;0.50;;
82635;SDS011;72317;37.280;-121.948;2023-12-20T08:50:06;0.93;;;0.60;;
82635;SDS011;72317;37.280;-121.948;2023-12-20T08:52:32;0.45;;;0.32;;
82635;SDS011;72317;37.280;-121.948;2023-12-20T08:54:58;1.77;;;0.40;;
82635;SDS011;72317;37.280;-121.948;2023-12-20T08:57:24;0.55;;;0.38;;
82635;SDS011;72317;37.280;-121.948;2023-12-20T08:59:50;2.25;;;0.30;;
82635;SDS011;72317;37.280;-121.948;2023-12-20T09:02:16;0.85;;;0.38;;
82635;SDS011;72317;37.280;-121.948;2023-12-20T09:04:42;0.52;;;0.40;;
82635;SDS011;72317;37.280;-121.948;2023-12-20T09:07:21;2.20;;;0.50;;
82635;SDS011;72317;37.280;-121.948;2023-12-20T09:09:47;7.50;;;0.60;;
82635;SDS011;72317;37.280;-121.948;2023-12-20T09:12:13;2.63;;;0.50;;
82635;SDS011;72317;37.280;-121.948;2023-12-20T09:14:38;1.65;;;0.40;;
82635;SDS011;72317;37.280;-121.948;2023-12-20T09:17:04;1.75;;;0.30;;
82635;SDS011;72317;37.280;-121.948;2023-12-20T09:19:31;2.80;;;0.30;;
82635;SDS011;72317;37.280;-121.948;2023-12-20T09:21:57;0.95;;;0.20;;
82635;SDS011;72317;37.280;-121.948;2023-12-20T09:24:23;2.95;;;0.30;;
82635;SDS011;72317;37.280;-121.948;2023-12-20T09:26:48;0.30;;;0.13;;
82635;SDS011;72317;37.280;-121.948;2023-12-20T09:29:14;1.27;;;0.15;;
82635;SDS011;72317;37.280;-121.948;2023-12-20T09:31:41;0.35;;;0.20;;
82635;SDS011;72317;37.280;-121.948;2023-12-20T09:34:09;2.03;;;0.40;;
82635;SDS011;72317;37.280;-121.948;2023-12-20T09:36:35;1.85;;;0.47;;
82635;SDS011;72317;37.280;-121.948;2023-12-20T09:39:01;3.05;;;0.30;;
82635;SDS011;72317;37.280;-121.948;2023-12-20T09:41:28;0.25;;;0.22;;
82635;SDS011;72317;37.280;-121.948;2023-12-20T09:43:57;1.10;;;0.20;;
82635;SDS011;72317;37.280;-121.948;2023-12-20T09:46:26;2.83;;;0.43;;
82635;SDS011;72317;37.280;-121.948;2023-12-20T09:48:53;1.80;;;0.40;;
82635;SDS011;72317;37.280;-121.948;2023-12-20T09:51:19;1.02;;;0.30;;
82635;SDS011;72317;37.280;-121.948;2023-12-20T09:53:45;1.90;;;0.30;;
82635;SDS011;72317;37.280;-121.948;2023-12-20T09:56:12;2.58;;;0.45;;
82635;SDS011;72317;37.280;-121.948;2023-12-20T09:58:38;1.63;;;0.25;;
82635;SDS011;72317;37.280;-121.948;2023-12-20T10:01:05;1.75;;;0.40;;
82635;SDS011;72317;37.280;-121.948;2023-12-20T10:03:31;1.70;;;0.22;;
82635;SDS011;72317;37.280;-121.948;2023-12-20T10:05:56;0.60;;;0.30;;
82635;SDS011;72317;37.280;-121.948;2023-12-20T10:08:23;2.63;;;0.20;;
82635;SDS011;72317;37.280;-121.948;2023-12-20T10:10:49;2.08;;;0.30;;
82635;SDS011;72317;37.280;-121.948;2023-12-20T10:13:15;0.40;;;0.10;;
82635;SDS011;72317;37.280;-121.948;2023-12-20T10:15:41;0.90;;;0.30;;
82635;SDS011;72317;37.280;-121.948;2023-12-20T10:18:07;1.75;;;0.20;;
82635;SDS011;72317;37.280;-121.948;2023-12-20T10:20:33;0.30;;;0.30;;
82635;SDS011;72317;37.280;-121.948;2023-12-20T10:22:59;1.10;;;0.17;;
82635;SDS011;72317;37.280;-121.948;2023-12-20T10:25:25;0.52;;;0.17;;
82635;SDS011;72317;37.280;-121.948;2023-12-20T10:28:08;0.32;;;0.10;;
82635;SDS011;72317;37.280;-121.948;2023-12-20T10:30:34;0.35;;;0.28;;
82635;SDS011;72317;37.280;-121.948;2023-12-20T10:33:01;0.30;;;0.10;;
82635;SDS011;72317;37.280;-121.948;2023-12-20T10:35:26;0.95;;;0.32;;
82635;SDS011;72317;37.280;-121.948;2023-12-20T10:37:54;0.80;;;0.20;;
82635;SDS011;72317;37.280;-121.948;2023-12-20T10:40:21;1.40;;;0.20;;
82635;SDS011;72317;37.280;-121.948;2023-12-20T10:42:47;1.55;;;0.10;;
82635;SDS011;72317;37.280;-121.948;2023-12-20T10:45:13;1.35;;;0.20;;
82635;SDS011;72317;37.280;-121.948;2023-12-20T10:47:40;0.00;;;0.00;;
82635;SDS011;72317;37.280;-121.948;2023-12-20T10:50:07;1.60;;;0.20;;
82635;SDS011;72317;37.280;-121.948;2023-12-20T10:52:34;1.38;;;0.32;;
82635;SDS011;72317;37.280;-121.948;2023-12-20T10:55:00;2.47;;;0.22;;
82635;SDS011;72317;37.280;-121.948;2023-12-20T10:57:25;1.85;;;0.10;;
82635;SDS011;72317;37.280;-121.948;2023-12-20T10:59:53;0.52;;;0.20;;
82635;SDS011;72317;37.280;-121.948;2023-12-20T11:02:19;1.67;;;0.10;;
82635;SDS011;72317;37.280;-121.948;2023-12-20T11:07:45;0.00;;;0.00;;
82635;SDS011;72317;37.280;-121.948;2023-12-20T11:10:20;0.63;;;0.15;;
82635;SDS011;72317;37.280;-121.948;2023-12-20T11:15:14;1.25;;;0.30;;
82635;SDS011;72317;37.280;-121.948;2023-12-20T11:17:40;0.52;;;0.20;;
82635;SDS011;72317;37.280;-121.948;2023-12-20T11:20:07;1.90;;;0.30;;
82635;SDS011;72317;37.280;-121.948;2023-12-20T11:22:35;1.05;;;0.20;;
82635;SDS011;72317;37.280;-121.948;2023-12-20T11:25:06;0.10;;;0.08;;
82635;SDS011;72317;37.280;-121.948;2023-12-20T11:27:33;0.60;;;0.15;;
82635;SDS011;72317;37.280;-121.948;2023-12-20T11:29:59;0.32;;;0.00;;
82635;SDS011;72317;37.280;-121.948;2023-12-20T11:34:58;0.52;;;0.10;;
82635;SDS011;72317;37.280;-121.948;2023-12-20T11:37:31;1.48;;;0.10;;
82635;SDS011;72317;37.280;-121.948;2023-12-20T11:40:03;1.45;;;0.40;;
82635;SDS011;72317;37.280;-121.948;2023-12-20T11:42:37;2.13;;;0.20;;
82635;SDS011;72317;37.280;-121.948;2023-12-20T11:45:03;2.03;;;0.25;;
82635;SDS011;72317;37.280;-121.948;2023-12-20T11:47:29;0.10;;;0.10;;
82635;SDS011;72317;37.280;-121.948;2023-12-20T11:49:56;0.75;;;0.10;;
82635;SDS011;72317;37.280;-121.948;2023-12-20T11:52:22;0.77;;;0.20;;
82635;SDS011;72317;37.280;-121.948;2023-12-20T11:54:48;5.15;;;0.20;;
82635;SDS011;72317;37.280;-121.948;2023-12-20T11:57:14;2.58;;;0.15;;
82635;SDS011;72317;37.280;-121.948;2023-12-20T11:59:39;2.15;;;0.17;;
82635;SDS011;72317;37.280;-121.948;2023-12-20T12:02:05;2.35;;;0.30;;
82635;SDS011;72317;37.280;-121.948;2023-12-20T12:04:31;1.15;;;0.15;;
82635;SDS011;72317;37.280;-121.948;2023-12-20T12:06:57;0.77;;;0.30;;
82635;SDS011;72317;37.280;-121.948;2023-12-20T12:09:23;0.03;;;0.03;;
82635;SDS011;72317;37.280;-121.948;2023-12-20T12:11:48;0.10;;;0.10;;
82635;SDS011;72317;37.280;-121.948;2023-12-20T12:14:14;0.45;;;0.25;;
82635;SDS011;72317;37.280;-121.948;2023-12-20T12:16:41;0.45;;;0.10;;
82635;SDS011;72317;37.280;-121.948;2023-12-20T12:19:07;0.15;;;0.10;;
82635;SDS011;72317;37.280;-121.948;2023-12-20T12:21:45;0.55;;;0.10;;
82635;SDS011;72317;37.280;-121.948;2023-12-20T12:24:11;1.42;;;0.10;;
82635;SDS011;72317;37.280;-121.948;2023-12-20T12:26:37;0.35;;;0.10;;
82635;SDS011;72317;37.280;-121.948;2023-12-20T12:29:03;0.40;;;0.20;;
82635;SDS011;72317;37.280;-121.948;2023-12-20T12:31:29;1.38;;;0.47;;
82635;SDS011;72317;37.280;-121.948;2023-12-20T12:33:55;0.22;;;0.10;;
82635;SDS011;72317;37.280;-121.948;2023-12-20T12:36:21;1.85;;;0.22;;
82635;SDS011;72317;37.280;-121.948;2023-12-20T12:38:47;0.10;;;0.10;;
82635;SDS011;72317;37.280;-121.948;2023-12-20T12:41:13;0.10;;;0.10;;
82635;SDS011;72317;37.280;-121.948;2023-12-20T12:43:40;2.42;;;0.30;;
82635;SDS011;72317;37.280;-121.948;2023-12-20T12:46:06;0.73;;;0.22;;
82635;SDS011;72317;37.280;-121.948;2023-12-20T12:48:32;0.38;;;0.20;;
82635;SDS011;72317;37.280;-121.948;2023-12-20T12:50:59;0.95;;;0.17;;
82635;SDS011;72317;37.280;-121.948;2023-12-20T12:53:25;1.73;;;0.20;;
82635;SDS011;72317;37.280;-121.948;2023-12-20T12:55:52;1.25;;;0.25;;
82635;SDS011;72317;37.280;-121.948;2023-12-20T12:58:18;0.30;;;0.20;;
82635;SDS011;72317;37.280;-121.948;2023-12-20T13:00:44;0.88;;;0.20;;
82635;SDS011;72317;37.280;-121.948;2023-12-20T13:03:10;1.35;;;0.30;;
82635;SDS011;72317;37.280;-121.948;2023-12-20T13:05:36;0.35;;;0.20;;
82635;SDS011;72317;37.280;-121.948;2023-12-20T13:08:03;4.53;;;0.30;;
82635;SDS011;72317;37.280;-121.948;2023-12-20T13:10:28;1.40;;;0.10;;
82635;SDS011;72317;37.280;-121.948;2023-12-20T13:12:54;2.72;;;0.20;;
82635;SDS011;72317;37.280;-121.948;2023-12-20T13:15:20;0.95;;;0.30;;
82635;SDS011;72317;37.280;-121.948;2023-12-20T13:17:46;2.83;;;0.20;;
82635;SDS011;72317;37.280;-121.948;2023-12-20T13:20:11;1.30;;;0.15;;
82635;SDS011;72317;37.280;-121.948;2023-12-20T13:22:37;1.95;;;0.20;;
82635;SDS011;72317;37.280;-121.948;2023-12-20T13:25:03;1.90;;;0.22;;
82635;SDS011;72317;37.280;-121.948;2023-12-20T13:27:29;1.75;;;0.10;;
82635;SDS011;72317;37.280;-121.948;2023-12-20T13:29:55;0.75;;;0.30;;
82635;SDS011;72317;37.280;-121.948;2023-12-20T13:32:20;0.20;;;0.20;;
82635;SDS011;72317;37.280;-121.948;2023-12-20T13:34:46;0.93;;;0.40;;
82635;SDS011;72317;37.280;-121.948;2023-12-20T13:37:13;1.27;;;0.20;;
82635;SDS011;72317;37.280;-121.948;2023-12-20T13:39:39;1.17;;;0.20;;
82635;SDS011;72317;37.280;-121.948;2023-12-20T13:42:05;1.27;;;0.30;;
82635;SDS011;72317;37.280;-121.948;2023-12-20T13:44:30;3.00;;;0.30;;
82635;SDS011;72317;37.280;-121.948;2023-12-20T13:46:56;1.73;;;0.30;;
82635;SDS011;72317;37.280;-121.948;2023-12-20T13:49:22;0.40;;;0.10;;
82635;SDS011;72317;37.280;-121.948;2023-12-20T13:51:50;1.30;;;0.22;;
82635;SDS011;72317;37.280;-121.948;2023-12-20T13:54:16;2.10;;;0.10;;
82635;SDS011;72317;37.280;-121.948;2023-12-20T13:56:45;1.00;;;0.20;;
82635;SDS011;72317;37.280;-121.948;2023-12-20T13:59:11;2.85;;;0.20;;
82635;SDS011;72317;37.280;-121.948;2023-12-20T14:01:38;1.13;;;0.10;;
82635;SDS011;72317;37.280;-121.948;2023-12-20T14:04:04;1.45;;;0.20;;
82635;SDS011;72317;37.280;-121.948;2023-12-20T14:06:29;1.27;;;0.10;;
82635;SDS011;72317;37.280;-121.948;2023-12-20T14:08:55;1.58;;;0.10;;
82635;SDS011;72317;37.280;-121.948;2023-12-20T14:11:21;1.95;;;0.10;;